Terminal Aerodrome Forecast
Issued by NWS

Home | Current Version | Previous Version | Text Only | Print | Product List | Glossary On
Versions: 1 2 3 4 5 6 7 8 9 10 11 12 13 14 15
000
FTUS44 KLZK 301700
TAFPBF
TAF
KPBF 301729Z 3018/0118 25009KT P6SM SCT020 BKN250
      TEMPO 3022/0102 5SM TSRA BR OVC040CB
     FM010200 22006KT P6SM SCT250
     FM011300 23008G15KT P6SM SCT025 BKN250=

USA.gov is the U.S. government's official web portal to all federal, state and local government web resources and services.